sensor_id;sensor_type;location;lat;lon;timestamp;pressure;altitude;pressure_sealevel;temperature;humidity
81151;BME280;70629;-26.026;27.976;2023-07-29T00:00:49;86620.47;;;9.82;60.66
81151;BME280;70629;-26.026;27.976;2023-07-29T00:02:24;86616.53;;;9.96;60.38
81151;BME280;70629;-26.026;27.976;2023-07-29T00:03:59;86621.88;;;9.57;60.98
81151;BME280;70629;-26.026;27.976;2023-07-29T00:05:34;86615.69;;;9.80;60.83
81151;BME280;70629;-26.026;27.976;2023-07-29T00:07:09;86608.00;;;9.75;60.56
81151;BME280;70629;-26.026;27.976;2023-07-29T00:08:43;86619.25;;;9.34;62.22
81151;BME280;70629;-26.026;27.976;2023-07-29T00:10:18;86611.94;;;9.60;60.89
81151;BME280;70629;-26.026;27.976;2023-07-29T00:11:53;86614.22;;;9.65;61.28
81151;BME280;70629;-26.026;27.976;2023-07-29T00:13:28;86615.50;;;9.39;62.07
81151;BME280;70629;-26.026;27.976;2023-07-29T00:15:03;86620.16;;;9.50;61.63
81151;BME280;70629;-26.026;27.976;2023-07-29T00:16:38;86616.63;;;9.59;60.82
81151;BME280;70629;-26.026;27.976;2023-07-29T00:18:13;86618.56;;;9.34;62.21
81151;BME280;70629;-26.026;27.976;2023-07-29T00:19:48;86610.50;;;9.34;62.40
81151;BME280;70629;-26.026;27.976;2023-07-29T00:21:23;86618.03;;;9.49;61.45
81151;BME280;70629;-26.026;27.976;2023-07-29T00:22:58;86612.63;;;9.35;61.63
81151;BME280;70629;-26.026;27.976;2023-07-29T00:24:34;86607.41;;;9.25;62.97
81151;BME280;70629;-26.026;27.976;2023-07-29T00:26:08;86609.50;;;9.27;62.30
81151;BME280;70629;-26.026;27.976;2023-07-29T00:27:43;86608.81;;;9.15;62.28
81151;BME280;70629;-26.026;27.976;2023-07-29T00:29:18;86605.28;;;9.24;63.11
81151;BME280;70629;-26.026;27.976;2023-07-29T00:30:53;86604.78;;;9.39;61.68
81151;BME280;70629;-26.026;27.976;2023-07-29T00:32:29;86610.13;;;9.51;61.49
81151;BME280;70629;-26.026;27.976;2023-07-29T00:34:05;86612.09;;;9.50;61.17
81151;BME280;70629;-26.026;27.976;2023-07-29T00:35:40;86613.03;;;9.18;62.20
81151;BME280;70629;-26.026;27.976;2023-07-29T00:37:15;86605.06;;;9.20;62.27
81151;BME280;70629;-26.026;27.976;2023-07-29T00:38:49;86612.19;;;9.27;61.82
81151;BME280;70629;-26.026;27.976;2023-07-29T00:40:27;86614.03;;;9.36;61.55
81151;BME280;70629;-26.026;27.976;2023-07-29T00:42:03;86605.66;;;9.55;61.21
81151;BME280;70629;-26.026;27.976;2023-07-29T00:43:39;86609.19;;;9.46;61.28
81151;BME280;70629;-26.026;27.976;2023-07-29T00:45:14;86602.53;;;9.47;61.44
81151;BME280;70629;-26.026;27.976;2023-07-29T00:46:52;86610.16;;;9.27;61.89
81151;BME280;70629;-26.026;27.976;2023-07-29T00:48:27;86612.25;;;9.04;62.81
81151;BME280;70629;-26.026;27.976;2023-07-29T00:50:04;86605.56;;;9.16;61.75
81151;BME280;70629;-26.026;27.976;2023-07-29T00:51:39;86601.44;;;9.52;61.63
81151;BME280;70629;-26.026;27.976;2023-07-29T00:53:14;86610.91;;;9.16;62.35
81151;BME280;70629;-26.026;27.976;2023-07-29T00:54:49;86610.59;;;9.10;62.00
81151;BME280;70629;-26.026;27.976;2023-07-29T00:56:24;86606.19;;;9.03;63.26
81151;BME280;70629;-26.026;27.976;2023-07-29T00:58:00;86604.22;;;9.29;62.06
81151;BME280;70629;-26.026;27.976;2023-07-29T00:59:35;86605.56;;;9.16;62.39
81151;BME280;70629;-26.026;27.976;2023-07-29T01:01:11;86606.47;;;9.21;62.12
81151;BME280;70629;-26.026;27.976;2023-07-29T01:02:46;86594.59;;;9.12;62.94
81151;BME280;70629;-26.026;27.976;2023-07-29T01:04:21;86601.97;;;9.37;62.47
81151;BME280;70629;-26.026;27.976;2023-07-29T01:11:55;86598.66;;;9.13;63.00
81151;BME280;70629;-26.026;27.976;2023-07-29T01:13:46;86597.03;;;9.20;61.92
81151;BME280;70629;-26.026;27.976;2023-07-29T01:15:32;86600.88;;;9.17;61.63
81151;BME280;70629;-26.026;27.976;2023-07-29T01:17:12;86603.38;;;9.38;61.66
81151;BME280;70629;-26.026;27.976;2023-07-29T01:18:48;86604.28;;;9.43;61.79
81151;BME280;70629;-26.026;27.976;2023-07-29T01:20:25;86606.47;;;9.21;62.22
81151;BME280;70629;-26.026;27.976;2023-07-29T01:22:02;86604.91;;;8.93;63.74
81151;BME280;70629;-26.026;27.976;2023-07-29T01:23:37;86605.84;;;8.97;63.34
81151;BME280;70629;-26.026;27.976;2023-07-29T01:25:13;86602.59;;;9.24;63.38
81151;BME280;70629;-26.026;27.976;2023-07-29T01:26:48;86605.75;;;9.32;62.06
81151;BME280;70629;-26.026;27.976;2023-07-29T01:28:23;86618.00;;;9.23;62.94
81151;BME280;70629;-26.026;27.976;2023-07-29T01:30:00;86606.13;;;9.52;61.78
81151;BME280;70629;-26.026;27.976;2023-07-29T01:31:43;86599.47;;;9.53;61.32
81151;BME280;70629;-26.026;27.976;2023-07-29T01:33:26;86595.53;;;9.42;62.26
81151;BME280;70629;-26.026;27.976;2023-07-29T01:35:23;86597.44;;;9.03;63.07
81151;BME280;70629;-26.026;27.976;2023-07-29T01:36:59;86601.41;;;8.90;63.57
81151;BME280;70629;-26.026;27.976;2023-07-29T01:38:38;86599.09;;;8.85;64.24
81151;BME280;70629;-26.026;27.976;2023-07-29T01:40:13;86590.19;;;9.05;63.97
81151;BME280;70629;-26.026;27.976;2023-07-29T01:41:49;86601.44;;;9.27;62.87
81151;BME280;70629;-26.026;27.976;2023-07-29T01:43:25;86601.69;;;9.19;62.94
81151;BME280;70629;-26.026;27.976;2023-07-29T01:45:00;86600.03;;;9.26;62.93
81151;BME280;70629;-26.026;27.976;2023-07-29T01:46:36;86596.03;;;8.90;63.48
81151;BME280;70629;-26.026;27.976;2023-07-29T01:48:12;86589.69;;;9.20;62.92
81151;BME280;70629;-26.026;27.976;2023-07-29T01:49:46;86595.47;;;8.92;63.93
81151;BME280;70629;-26.026;27.976;2023-07-29T01:51:21;86585.94;;;9.25;63.00
81151;BME280;70629;-26.026;27.976;2023-07-29T01:52:56;86593.53;;;9.17;63.13
81151;BME280;70629;-26.026;27.976;2023-07-29T01:54:31;86591.59;;;9.06;62.96
81151;BME280;70629;-26.026;27.976;2023-07-29T01:56:06;86589.34;;;9.14;62.99
81151;BME280;70629;-26.026;27.976;2023-07-29T01:57:41;86592.72;;;9.15;62.82
81151;BME280;70629;-26.026;27.976;2023-07-29T01:59:16;86590.16;;;9.17;63.11
81151;BME280;70629;-26.026;27.976;2023-07-29T02:00:52;86597.22;;;8.99;63.09
81151;BME280;70629;-26.026;27.976;2023-07-29T02:02:26;86597.69;;;8.84;64.26
81151;BME280;70629;-26.026;27.976;2023-07-29T02:04:02;86599.34;;;8.77;63.97
81151;BME280;70629;-26.026;27.976;2023-07-29T02:05:37;86596.66;;;8.89;63.55
81151;BME280;70629;-26.026;27.976;2023-07-29T02:07:11;86591.63;;;8.83;63.92
81151;BME280;70629;-26.026;27.976;2023-07-29T02:08:46;86592.31;;;8.95;63.89
81151;BME280;70629;-26.026;27.976;2023-07-29T02:10:21;86587.00;;;9.09;63.66
81151;BME280;70629;-26.026;27.976;2023-07-29T02:11:56;86587.41;;;9.03;63.73
81151;BME280;70629;-26.026;27.976;2023-07-29T02:13:31;86582.28;;;8.96;63.70
81151;BME280;70629;-26.026;27.976;2023-07-29T02:15:06;86589.03;;;9.08;64.35
81151;BME280;70629;-26.026;27.976;2023-07-29T02:16:41;86582.63;;;8.90;64.24
81151;BME280;70629;-26.026;27.976;2023-07-29T02:18:16;86577.16;;;8.88;64.54
81151;BME280;70629;-26.026;27.976;2023-07-29T02:19:51;86589.59;;;9.07;64.39
81151;BME280;70629;-26.026;27.976;2023-07-29T02:21:25;86588.81;;;9.30;63.33
81151;BME280;70629;-26.026;27.976;2023-07-29T02:23:00;86588.56;;;9.37;62.84
81151;BME280;70629;-26.026;27.976;2023-07-29T02:24:35;86584.84;;;9.31;63.19
81151;BME280;70629;-26.026;27.976;2023-07-29T02:26:10;86584.44;;;9.22;62.95
81151;BME280;70629;-26.026;27.976;2023-07-29T02:27:45;86582.53;;;8.88;64.93
81151;BME280;70629;-26.026;27.976;2023-07-29T02:29:20;86594.84;;;9.05;64.42
81151;BME280;70629;-26.026;27.976;2023-07-29T02:32:49;86593.91;;;9.37;63.23
81151;BME280;70629;-26.026;27.976;2023-07-29T02:34:24;86595.44;;;9.40;62.86
81151;BME280;70629;-26.026;27.976;2023-07-29T02:35:59;86593.84;;;8.87;64.15
81151;BME280;70629;-26.026;27.976;2023-07-29T02:37:33;86587.91;;;8.76;64.60
81151;BME280;70629;-26.026;27.976;2023-07-29T02:39:09;86589.69;;;9.09;64.23
81151;BME280;70629;-26.026;27.976;2023-07-29T02:40:44;86580.06;;;8.92;65.11
81151;BME280;70629;-26.026;27.976;2023-07-29T02:42:18;86585.84;;;9.12;64.04
81151;BME280;70629;-26.026;27.976;2023-07-29T02:43:53;86581.75;;;9.22;64.20
81151;BME280;70629;-26.026;27.976;2023-07-29T02:45:28;86581.75;;;9.22;63.89
81151;BME280;70629;-26.026;27.976;2023-07-29T02:47:03;86592.00;;;8.77;65.44
81151;BME280;70629;-26.026;27.976;2023-07-29T02:48:38;86592.16;;;8.45;67.13
81151;BME280;70629;-26.026;27.976;2023-07-29T02:50:13;86591.19;;;8.75;66.34
81151;BME280;70629;-26.026;27.976;2023-07-29T02:51:48;86588.16;;;8.69;66.17
81151;BME280;70629;-26.026;27.976;2023-07-29T02:53:24;86588.66;;;8.42;66.27
81151;BME280;70629;-26.026;27.976;2023-07-29T02:54:59;86585.59;;;8.71;65.52
81151;BME280;70629;-26.026;27.976;2023-07-29T02:56:33;86584.09;;;8.45;67.34
81151;BME280;70629;-26.026;27.976;2023-07-29T02:58:09;86585.00;;;8.84;65.69
81151;BME280;70629;-26.026;27.976;2023-07-29T02:59:44;86585.63;;;8.36;66.15
81151;BME280;70629;-26.026;27.976;2023-07-29T03:01:20;86579.94;;;8.42;66.74
81151;BME280;70629;-26.026;27.976;2023-07-29T03:02:55;86579.22;;;8.41;67.36
81151;BME280;70629;-26.026;27.976;2023-07-29T03:04:30;86578.28;;;8.48;66.44
81151;BME280;70629;-26.026;27.976;2023-07-29T03:06:08;86581.03;;;8.85;65.58
81151;BME280;70629;-26.026;27.976;2023-07-29T03:07:43;86582.81;;;8.69;65.86
81151;BME280;70629;-26.026;27.976;2023-07-29T03:09:19;86575.81;;;8.29;67.19
81151;BME280;70629;-26.026;27.976;2023-07-29T03:10:54;86576.28;;;8.60;66.19
81151;BME280;70629;-26.026;27.976;2023-07-29T03:12:29;86578.81;;;8.81;66.26
81151;BME280;70629;-26.026;27.976;2023-07-29T03:14:05;86577.44;;;8.57;66.51
81151;BME280;70629;-26.026;27.976;2023-07-29T03:15:40;86580.72;;;8.44;66.99
81151;BME280;70629;-26.026;27.976;2023-07-29T03:17:15;86581.88;;;8.53;66.36
81151;BME280;70629;-26.026;27.976;2023-07-29T03:18:50;86579.34;;;8.31;66.71
81151;BME280;70629;-26.026;27.976;2023-07-29T03:20:25;86580.50;;;8.52;66.65
81151;BME280;70629;-26.026;27.976;2023-07-29T03:21:59;86578.63;;;8.66;66.58
81151;BME280;70629;-26.026;27.976;2023-07-29T03:23:34;86571.88;;;8.30;66.57
81151;BME280;70629;-26.026;27.976;2023-07-29T03:25:09;86574.09;;;8.33;67.14
81151;BME280;70629;-26.026;27.976;2023-07-29T03:26:44;86570.72;;;8.45;67.08
81151;BME280;70629;-26.026;27.976;2023-07-29T03:28:19;86585.13;;;8.63;66.21
81151;BME280;70629;-26.026;27.976;2023-07-29T03:29:54;86578.16;;;8.69;66.02
81151;BME280;70629;-26.026;27.976;2023-07-29T03:31:29;86582.19;;;8.94;64.92
81151;BME280;70629;-26.026;27.976;2023-07-29T03:33:04;86579.94;;;9.02;64.78
81151;BME280;70629;-26.026;27.976;2023-07-29T03:34:39;86578.84;;;8.58;66.44
81151;BME280;70629;-26.026;27.976;2023-07-29T03:36:14;86585.50;;;8.57;66.18
81151;BME280;70629;-26.026;27.976;2023-07-29T03:37:50;86583.03;;;8.73;65.25
81151;BME280;70629;-26.026;27.976;2023-07-29T03:39:25;86583.63;;;8.48;66.81
81151;BME280;70629;-26.026;27.976;2023-07-29T03:40:59;86585.75;;;8.38;67.56
81151;BME280;70629;-26.026;27.976;2023-07-29T03:42:36;86582.38;;;8.38;67.52
81151;BME280;70629;-26.026;27.976;2023-07-29T03:44:11;86596.34;;;8.48;66.54
81151;BME280;70629;-26.026;27.976;2023-07-29T03:45:46;86594.34;;;8.25;66.91
81151;BME280;70629;-26.026;27.976;2023-07-29T03:47:21;86590.53;;;8.40;66.77
81151;BME280;70629;-26.026;27.976;2023-07-29T03:48:55;86597.34;;;8.19;67.39
81151;BME280;70629;-26.026;27.976;2023-07-29T03:50:30;86587.94;;;8.53;66.12
81151;BME280;70629;-26.026;27.976;2023-07-29T03:52:05;86597.25;;;8.29;67.66
81151;BME280;70629;-26.026;27.976;2023-07-29T03:53:40;86597.84;;;8.39;67.73
81151;BME280;70629;-26.026;27.976;2023-07-29T03:55:15;86599.59;;;8.58;66.78
81151;BME280;70629;-26.026;27.976;2023-07-29T03:56:50;86600.06;;;8.54;65.83
81151;BME280;70629;-26.026;27.976;2023-07-29T03:58:25;86598.53;;;8.28;66.63
81151;BME280;70629;-26.026;27.976;2023-07-29T04:00:00;86598.69;;;8.42;66.47
81151;BME280;70629;-26.026;27.976;2023-07-29T04:01:35;86592.34;;;8.25;67.08
81151;BME280;70629;-26.026;27.976;2023-07-29T04:03:11;86596.78;;;8.09;68.03
81151;BME280;70629;-26.026;27.976;2023-07-29T04:04:45;86596.34;;;8.36;67.01
81151;BME280;70629;-26.026;27.976;2023-07-29T04:06:22;86594.72;;;8.31;66.90
81151;BME280;70629;-26.026;27.976;2023-07-29T04:07:57;86588.91;;;8.46;66.82
81151;BME280;70629;-26.026;27.976;2023-07-29T04:09:32;86594.59;;;8.52;66.73
81151;BME280;70629;-26.026;27.976;2023-07-29T04:11:08;86591.34;;;8.42;66.55
81151;BME280;70629;-26.026;27.976;2023-07-29T04:12:43;86590.41;;;8.49;66.77
81151;BME280;70629;-26.026;27.976;2023-07-29T04:14:18;86584.22;;;8.35;66.83
81151;BME280;70629;-26.026;27.976;2023-07-29T04:15:53;86579.56;;;8.35;67.15
81151;BME280;70629;-26.026;27.976;2023-07-29T04:17:28;86585.03;;;8.61;66.74
81151;BME280;70629;-26.026;27.976;2023-07-29T04:19:03;86578.16;;;8.23;67.25
81151;BME280;70629;-26.026;27.976;2023-07-29T04:20:38;86579.06;;;8.16;68.03
81151;BME280;70629;-26.026;27.976;2023-07-29T04:22:13;86579.78;;;8.28;66.99
81151;BME280;70629;-26.026;27.976;2023-07-29T04:23:49;86576.84;;;8.01;67.17
81151;BME280;70629;-26.026;27.976;2023-07-29T04:25:23;86575.16;;;8.40;67.21
81151;BME280;70629;-26.026;27.976;2023-07-29T04:26:58;86569.78;;;8.52;66.02
81151;BME280;70629;-26.026;27.976;2023-07-29T04:28:33;86570.47;;;8.52;65.84
81151;BME280;70629;-26.026;27.976;2023-07-29T04:30:07;86572.56;;;8.54;65.72
81151;BME280;70629;-26.026;27.976;2023-07-29T04:31:43;86570.81;;;8.00;67.59
81151;BME280;70629;-26.026;27.976;2023-07-29T04:33:17;86567.94;;;8.31;67.75
81151;BME280;70629;-26.026;27.976;2023-07-29T04:34:52;86559.41;;;8.11;67.17
81151;BME280;70629;-26.026;27.976;2023-07-29T04:36:27;86560.69;;;8.22;66.82
81151;BME280;70629;-26.026;27.976;2023-07-29T04:38:01;86559.19;;;7.96;68.16
81151;BME280;70629;-26.026;27.976;2023-07-29T04:39:36;86567.91;;;8.08;67.92
81151;BME280;70629;-26.026;27.976;2023-07-29T04:41:11;86564.97;;;7.80;69.06
81151;BME280;70629;-26.026;27.976;2023-07-29T04:42:46;86569.69;;;7.47;69.73
81151;BME280;70629;-26.026;27.976;2023-07-29T04:44:21;86565.75;;;7.60;70.12
81151;BME280;70629;-26.026;27.976;2023-07-29T04:45:56;86557.72;;;7.60;70.04
81151;BME280;70629;-26.026;27.976;2023-07-29T04:47:31;86564.38;;;7.70;69.80
81151;BME280;70629;-26.026;27.976;2023-07-29T04:49:05;86557.66;;;7.81;69.20
81151;BME280;70629;-26.026;27.976;2023-07-29T04:50:40;86566.72;;;7.76;69.60
81151;BME280;70629;-26.026;27.976;2023-07-29T04:52:15;86562.06;;;7.76;70.26
81151;BME280;70629;-26.026;27.976;2023-07-29T04:53:50;86561.59;;;7.91;69.32
81151;BME280;70629;-26.026;27.976;2023-07-29T04:55:25;86563.22;;;8.20;68.63
81151;BME280;70629;-26.026;27.976;2023-07-29T04:57:00;86570.94;;;7.90;69.52
81151;BME280;70629;-26.026;27.976;2023-07-29T04:58:35;86561.09;;;7.60;69.72
81151;BME280;70629;-26.026;27.976;2023-07-29T05:00:10;86567.88;;;7.73;70.48
81151;BME280;70629;-26.026;27.976;2023-07-29T05:01:45;86561.22;;;7.62;71.04
81151;BME280;70629;-26.026;27.976;2023-07-29T05:03:20;86566.31;;;7.46;71.25
81151;BME280;70629;-26.026;27.976;2023-07-29T05:04:55;86569.00;;;7.58;70.45
81151;BME280;70629;-26.026;27.976;2023-07-29T05:06:30;86558.69;;;7.76;70.41
81151;BME280;70629;-26.026;27.976;2023-07-29T05:08:05;86560.75;;;7.77;70.25
81151;BME280;70629;-26.026;27.976;2023-07-29T05:09:39;86555.19;;;7.62;70.58
81151;BME280;70629;-26.026;27.976;2023-07-29T05:11:14;86563.91;;;7.74;70.53
81151;BME280;70629;-26.026;27.976;2023-07-29T05:12:49;86561.47;;;7.78;69.73
81151;BME280;70629;-26.026;27.976;2023-07-29T05:14:24;86564.00;;;7.64;70.78
81151;BME280;70629;-26.026;27.976;2023-07-29T05:15:58;86558.22;;;7.91;69.92
81151;BME280;70629;-26.026;27.976;2023-07-29T05:17:33;86560.91;;;8.03;69.11
81151;BME280;70629;-26.026;27.976;2023-07-29T05:19:09;86554.75;;;8.12;68.54
81151;BME280;70629;-26.026;27.976;2023-07-29T05:20:44;86553.91;;;7.98;69.66
81151;BME280;70629;-26.026;27.976;2023-07-29T05:22:19;86554.41;;;8.17;68.29
81151;BME280;70629;-26.026;27.976;2023-07-29T05:23:53;86554.84;;;8.25;68.49
81151;BME280;70629;-26.026;27.976;2023-07-29T05:25:28;86549.97;;;8.22;68.20
81151;BME280;70629;-26.026;27.976;2023-07-29T05:27:04;86546.94;;;8.04;69.38
81151;BME280;70629;-26.026;27.976;2023-07-29T05:28:38;86544.72;;;8.24;69.10
81151;BME280;70629;-26.026;27.976;2023-07-29T05:30:13;86554.41;;;8.41;68.35
81151;BME280;70629;-26.026;27.976;2023-07-29T05:31:48;86557.66;;;8.39;68.50
81151;BME280;70629;-26.026;27.976;2023-07-29T05:33:22;86553.59;;;8.38;68.15
81151;BME280;70629;-26.026;27.976;2023-07-29T05:34:57;86552.66;;;8.57;67.75
81151;BME280;70629;-26.026;27.976;2023-07-29T05:36:32;86552.97;;;8.74;67.65
81151;BME280;70629;-26.026;27.976;2023-07-29T05:38:07;86568.56;;;8.78;67.81
81151;BME280;70629;-26.026;27.976;2023-07-29T05:39:43;86576.44;;;8.99;67.14
81151;BME280;70629;-26.026;27.976;2023-07-29T05:41:17;86573.31;;;9.28;65.61
81151;BME280;70629;-26.026;27.976;2023-07-29T05:42:52;86568.81;;;9.44;64.96
81151;BME280;70629;-26.026;27.976;2023-07-29T05:44:28;86567.63;;;9.47;64.47
81151;BME280;70629;-26.026;27.976;2023-07-29T05:46:04;86571.06;;;9.61;64.00
81151;BME280;70629;-26.026;27.976;2023-07-29T05:47:40;86572.59;;;9.64;64.48
81151;BME280;70629;-26.026;27.976;2023-07-29T05:49:15;86577.28;;;9.78;63.55
81151;BME280;70629;-26.026;27.976;2023-07-29T05:50:50;86567.38;;;9.94;63.78
81151;BME280;70629;-26.026;27.976;2023-07-29T05:52:25;86588.94;;;10.07;63.24
81151;BME280;70629;-26.026;27.976;2023-07-29T05:53:59;86571.66;;;10.24;62.98
81151;BME280;70629;-26.026;27.976;2023-07-29T05:55:34;86573.25;;;10.16;63.12
81151;BME280;70629;-26.026;27.976;2023-07-29T05:57:10;86577.63;;;10.23;63.06
81151;BME280;70629;-26.026;27.976;2023-07-29T05:58:46;86572.94;;;10.23;63.10
81151;BME280;70629;-26.026;27.976;2023-07-29T06:00:20;86586.56;;;10.27;63.27
81151;BME280;70629;-26.026;27.976;2023-07-29T06:01:55;86582.03;;;10.43;63.34
81151;BME280;70629;-26.026;27.976;2023-07-29T06:03:30;86592.09;;;10.56;62.48
81151;BME280;70629;-26.026;27.976;2023-07-29T06:05:06;86591.72;;;10.62;62.35
81151;BME280;70629;-26.026;27.976;2023-07-29T06:06:41;86588.44;;;10.64;62.67
81151;BME280;70629;-26.026;27.976;2023-07-29T06:08:16;86588.44;;;10.77;62.19
81151;BME280;70629;-26.026;27.976;2023-07-29T06:09:51;86587.31;;;10.96;62.34
81151;BME280;70629;-26.026;27.976;2023-07-29T06:11:28;86589.91;;;10.94;61.47
81151;BME280;70629;-26.026;27.976;2023-07-29T06:13:03;86589.59;;;11.15;61.20
81151;BME280;70629;-26.026;27.976;2023-07-29T06:14:37;86594.16;;;11.13;62.39
81151;BME280;70629;-26.026;27.976;2023-07-29T06:16:12;86587.75;;;11.33;61.02
81151;BME280;70629;-26.026;27.976;2023-07-29T06:17:47;86589.25;;;11.36;60.83
81151;BME280;70629;-26.026;27.976;2023-07-29T06:19:22;86596.50;;;11.48;60.54
81151;BME280;70629;-26.026;27.976;2023-07-29T06:20:57;86600.31;;;11.42;60.35
81151;BME280;70629;-26.026;27.976;2023-07-29T06:22:33;86599.03;;;11.73;60.05
81151;BME280;70629;-26.026;27.976;2023-07-29T06:24:07;86602.72;;;12.09;59.95
81151;BME280;70629;-26.026;27.976;2023-07-29T06:25:43;86597.00;;;12.32;58.62
81151;BME280;70629;-26.026;27.976;2023-07-29T06:27:18;86596.31;;;12.31;57.48
81151;BME280;70629;-26.026;27.976;2023-07-29T06:28:53;86590.22;;;12.31;55.94
81151;BME280;70629;-26.026;27.976;2023-07-29T06:30:28;86597.28;;;12.38;58.13
81151;BME280;70629;-26.026;27.976;2023-07-29T06:32:03;86600.50;;;12.66;56.24
81151;BME280;70629;-26.026;27.976;2023-07-29T06:33:38;86593.44;;;12.43;57.79
81151;BME280;70629;-26.026;27.976;2023-07-29T06:35:13;86603.88;;;12.35;59.36
81151;BME280;70629;-26.026;27.976;2023-07-29T06:36:47;86604.69;;;12.38;58.05
81151;BME280;70629;-26.026;27.976;2023-07-29T06:38:22;86599.06;;;12.33;55.88
81151;BME280;70629;-26.026;27.976;2023-07-29T06:39:57;86603.00;;;12.30;55.79
81151;BME280;70629;-26.026;27.976;2023-07-29T06:41:32;86605.63;;;12.44;55.68
81151;BME280;70629;-26.026;27.976;2023-07-29T06:43:07;86597.63;;;12.46;56.71
81151;BME280;70629;-26.026;27.976;2023-07-29T06:44:42;86597.00;;;12.48;55.13
81151;BME280;70629;-26.026;27.976;2023-07-29T06:46:20;86600.41;;;12.64;52.94
81151;BME280;70629;-26.026;27.976;2023-07-29T06:47:55;86598.16;;;12.74;53.23
81151;BME280;70629;-26.026;27.976;2023-07-29T06:49:30;86602.69;;;12.85;52.89
81151;BME280;70629;-26.026;27.976;2023-07-29T06:51:05;86611.00;;;12.91;51.88
81151;BME280;70629;-26.026;27.976;2023-07-29T06:52:40;86607.44;;;12.87;51.93
81151;BME280;70629;-26.026;27.976;2023-07-29T06:54:16;86609.00;;;12.92;51.96
81151;BME280;70629;-26.026;27.976;2023-07-29T06:55:52;86605.06;;;13.10;49.56
81151;BME280;70629;-26.026;27.976;2023-07-29T06:57:27;86606.38;;;13.09;50.43
81151;BME280;70629;-26.026;27.976;2023-07-29T06:59:01;86603.94;;;13.00;50.89
81151;BME280;70629;-26.026;27.976;2023-07-29T07:00:36;86608.59;;;13.13;50.74
81151;BME280;70629;-26.026;27.976;2023-07-29T07:02:11;86608.31;;;13.23;50.73
81151;BME280;70629;-26.026;27.976;2023-07-29T07:03:46;86611.34;;;13.31;50.08
81151;BME280;70629;-26.026;27.976;2023-07-29T07:05:21;86612.16;;;13.51;49.27
81151;BME280;70629;-26.026;27.976;2023-07-29T07:06:56;86611.91;;;13.78;48.08
81151;BME280;70629;-26.026;27.976;2023-07-29T07:08:31;86610.19;;;13.69;48.24
81151;BME280;70629;-26.026;27.976;2023-07-29T07:10:07;86616.53;;;13.76;48.67
81151;BME280;70629;-26.026;27.976;2023-07-29T07:11:42;86617.31;;;13.78;49.33
81151;BME280;70629;-26.026;27.976;2023-07-29T07:13:17;86613.16;;;13.93;47.93
81151;BME280;70629;-26.026;27.976;2023-07-29T07:14:52;86620.31;;;14.04;47.58
81151;BME280;70629;-26.026;27.976;2023-07-29T07:16:27;86631.00;;;14.18;46.67
81151;BME280;70629;-26.026;27.976;2023-07-29T07:18:04;86623.50;;;14.34;46.62
81151;BME280;70629;-26.026;27.976;2023-07-29T07:19:40;86622.09;;;14.33;46.43
81151;BME280;70629;-26.026;27.976;2023-07-29T07:21:15;86624.66;;;14.29;46.58
81151;BME280;70629;-26.026;27.976;2023-07-29T07:22:50;86615.94;;;14.48;47.47
81151;BME280;70629;-26.026;27.976;2023-07-29T07:24:25;86605.81;;;14.48;47.31
81151;BME280;70629;-26.026;27.976;2023-07-29T07:26:00;86602.50;;;14.70;45.40
81151;BME280;70629;-26.026;27.976;2023-07-29T07:27:36;86601.78;;;15.07;43.60
81151;BME280;70629;-26.026;27.976;2023-07-29T07:29:11;86599.28;;;15.13;43.87
81151;BME280;70629;-26.026;27.976;2023-07-29T07:30:46;86591.03;;;15.09;43.12
81151;BME280;70629;-26.026;27.976;2023-07-29T07:32:21;86587.97;;;15.18;43.40
81151;BME280;70629;-26.026;27.976;2023-07-29T07:33:56;86580.91;;;15.29;43.35
81151;BME280;70629;-26.026;27.976;2023-07-29T07:35:31;86572.41;;;15.38;43.32
81151;BME280;70629;-26.026;27.976;2023-07-29T07:37:06;86560.56;;;15.50;43.32
81151;BME280;70629;-26.026;27.976;2023-07-29T07:38:41;86565.16;;;15.65;42.79
81151;BME280;70629;-26.026;27.976;2023-07-29T07:40:16;86553.94;;;15.74;43.00
81151;BME280;70629;-26.026;27.976;2023-07-29T07:41:51;86557.78;;;15.67;43.64
81151;BME280;70629;-26.026;27.976;2023-07-29T07:43:26;86560.44;;;15.87;44.39
81151;BME280;70629;-26.026;27.976;2023-07-29T07:45:01;86558.47;;;16.11;40.95
81151;BME280;70629;-26.026;27.976;2023-07-29T07:46:36;86554.88;;;16.27;40.46
81151;BME280;70629;-26.026;27.976;2023-07-29T07:48:12;86558.47;;;16.33;39.97
81151;BME280;70629;-26.026;27.976;2023-07-29T07:49:47;86544.03;;;16.50;39.75
81151;BME280;70629;-26.026;27.976;2023-07-29T07:51:24;86546.50;;;16.42;41.47
81151;BME280;70629;-26.026;27.976;2023-07-29T07:52:59;86546.22;;;16.56;40.68
81151;BME280;70629;-26.026;27.976;2023-07-29T07:54:34;86544.78;;;16.77;40.29
81151;BME280;70629;-26.026;27.976;2023-07-29T07:56:08;86540.50;;;16.93;40.68
81151;BME280;70629;-26.026;27.976;2023-07-29T07:57:44;86550.63;;;16.91;40.29
81151;BME280;70629;-26.026;27.976;2023-07-29T07:59:19;86546.75;;;16.98;39.96
81151;BME280;70629;-26.026;27.976;2023-07-29T08:01:01;86547.19;;;17.14;38.69
81151;BME280;70629;-26.026;27.976;2023-07-29T08:02:36;86548.47;;;17.37;39.23
81151;BME280;70629;-26.026;27.976;2023-07-29T08:04:12;86539.13;;;17.44;37.60
81151;BME280;70629;-26.026;27.976;2023-07-29T08:05:47;86535.50;;;17.35;37.70
81151;BME280;70629;-26.026;27.976;2023-07-29T08:07:22;86529.34;;;17.59;38.27
81151;BME280;70629;-26.026;27.976;2023-07-29T08:08:57;86532.47;;;17.75;39.05
81151;BME280;70629;-26.026;27.976;2023-07-29T08:10:32;86536.72;;;17.82;37.31
81151;BME280;70629;-26.026;27.976;2023-07-29T08:12:07;86544.34;;;17.87;36.32
81151;BME280;70629;-26.026;27.976;2023-07-29T08:13:42;86535.81;;;18.01;35.42
81151;BME280;70629;-26.026;27.976;2023-07-29T08:15:17;86530.47;;;18.05;34.29
81151;BME280;70629;-26.026;27.976;2023-07-29T08:16:52;86529.06;;;18.04;34.54
81151;BME280;70629;-26.026;27.976;2023-07-29T08:18:27;86531.84;;;18.36;33.55
81151;BME280;70629;-26.026;27.976;2023-07-29T08:20:02;86526.44;;;18.38;33.59
81151;BME280;70629;-26.026;27.976;2023-07-29T08:21:37;86521.00;;;18.38;33.37
81151;BME280;70629;-26.026;27.976;2023-07-29T08:23:12;86523.34;;;18.52;34.31
81151;BME280;70629;-26.026;27.976;2023-07-29T08:24:47;86526.88;;;18.56;34.43